Aviation Digital Data Service (ADDS)

Output produced by METARs form (2343 UTC 18 August 2019)
found at http://www.aviationweather.gov/metar/data/
 
METAR text: VGHS 182330Z 16007KT 3500 HZ FEW015 28/26 Q1006 NOSIG
Conditions at: VGHS (DHAKA , BD) observed 2330 UTC 18 August 2019
Temperature: 28.0°C (82°F)
Dewpoint: 26.0°C (79°F) [RH = 89%]
Pressure (altimeter): 29.70 inches Hg (1006.0 mb)
Winds: from the SSE (160 degrees) at 8 MPH (7 knots; 3.6 m/s)
Visibility: 2.17 miles (3.49 km)
Ceiling: at least 12,000 feet AGL
Clouds: few clouds at 1500 feet AGL
Weather: HZ  (haze)

METAR text: VGHS 182300Z 15005KT 3500 HZ FEW015 28/26 Q1006 NOSIG
Conditions at: VGHS (DHAKA , BD) observed 2300 UTC 18 August 2019
Temperature: 28.0°C (82°F)
Dewpoint: 26.0°C (79°F) [RH = 89%]
Pressure (altimeter): 29.70 inches Hg (1006.0 mb)
Winds: from the SSE (150 degrees) at 6 MPH (5 knots; 2.6 m/s)
Visibility: 2.17 miles (3.49 km)
Ceiling: at least 12,000 feet AGL
Clouds: few clouds at 1500 feet AGL
Weather: HZ  (haze)

METAR text: VGHS 182230Z 14004KT 3500 HZ FEW015 28/25 Q1006 NOSIG
Conditions at: VGHS (DHAKA , BD) observed 2230 UTC 18 August 2019
Temperature: 28.0°C (82°F)
Dewpoint: 25.0°C (77°F) [RH = 84%]
Pressure (altimeter): 29.70 inches Hg (1006.0 mb)
Winds: from the SE (140 degrees) at 5 MPH (4 knots; 2.1 m/s)
Visibility: 2.17 miles (3.49 km)
Ceiling: at least 12,000 feet AGL
Clouds: few clouds at 1500 feet AGL
Weather: HZ  (haze)

METAR text: VGHS 182200Z 14005KT 3500 HZ FEW015 28/25 Q1006 NOSIG
Conditions at: VGHS (DHAKA , BD) observed 2200 UTC 18 August 2019
Temperature: 28.0°C (82°F)
Dewpoint: 25.0°C (77°F) [RH = 84%]
Pressure (altimeter): 29.70 inches Hg (1006.0 mb)
Winds: from the SE (140 degrees) at 6 MPH (5 knots; 2.6 m/s)
Visibility: 2.17 miles (3.49 km)
Ceiling: at least 12,000 feet AGL
Clouds: few clouds at 1500 feet AGL
Weather: HZ  (haze)

METAR text: VGHS 182130Z 14006KT 4000 HZ FEW015 28/25 Q1006 NOSIG
Conditions at: VGHS (DHAKA , BD) observed 2130 UTC 18 August 2019
Temperature: 28.0°C (82°F)
Dewpoint: 25.0°C (77°F) [RH = 84%]
Pressure (altimeter): 29.70 inches Hg (1006.0 mb)
Winds: from the SE (140 degrees) at 7 MPH (6 knots; 3.1 m/s)
Visibility: 2.49 miles (4.01 km)
Ceiling: at least 12,000 feet AGL
Clouds: few clouds at 1500 feet AGL
Weather: HZ  (haze)

METAR text: VGHS 182100Z 13008KT 4000 HZ FEW015 28/25 Q1006 NOSIG
Conditions at: VGHS (DHAKA , BD) observed 2100 UTC 18 August 2019
Temperature: 28.0°C (82°F)
Dewpoint: 25.0°C (77°F) [RH = 84%]
Pressure (altimeter): 29.70 inches Hg (1006.0 mb)
Winds: from the SE (130 degrees) at 9 MPH (8 knots; 4.1 m/s)
Visibility: 2.49 miles (4.01 km)
Ceiling: at least 12,000 feet AGL
Clouds: few clouds at 1500 feet AGL
Weather: HZ  (haze)

METAR text: VGHS 182000Z 17008KT 4000 HZ NSC 29/26 Q1006 NOSIG
Conditions at: VGHS (DHAKA , BD) observed 2000 UTC 18 August 2019
Temperature: 29.0°C (84°F)
Dewpoint: 26.0°C (79°F) [RH = 84%]
Pressure (altimeter): 29.70 inches Hg (1006.0 mb)
Winds: from the S (170 degrees) at 9 MPH (8 knots; 4.1 m/s)
Visibility: 2.49 miles (4.01 km)
Ceiling: at least 12,000 feet AGL
Clouds: sky clear below 12,000 feet AGL
Weather: HZ  (haze)

METAR text: VGHS 181930Z 19010KT 4000 HZ SCT015 30/26 Q1007 NOSIG
Conditions at: VGHS (DHAKA , BD) observed 1930 UTC 18 August 2019
Temperature: 30.0°C (86°F)
Dewpoint: 26.0°C (79°F) [RH = 79%]
Pressure (altimeter): 29.73 inches Hg (1007.0 mb)
Winds: from the S (190 degrees) at 12 MPH (10 knots; 5.1 m/s)
Visibility: 2.49 miles (4.01 km)
Ceiling: at least 12,000 feet AGL
Clouds: scattered clouds at 1500 feet AGL
Weather: HZ  (haze)

METAR text: VGHS 181900Z 18010KT 4000 HZ SCT015 30/26 Q1007 NOSIG
Conditions at: VGHS (DHAKA , BD) observed 1900 UTC 18 August 2019
Temperature: 30.0°C (86°F)
Dewpoint: 26.0°C (79°F) [RH = 79%]
Pressure (altimeter): 29.73 inches Hg (1007.0 mb)
Winds: from the S (180 degrees) at 12 MPH (10 knots; 5.1 m/s)
Visibility: 2.49 miles (4.01 km)
Ceiling: at least 12,000 feet AGL
Clouds: scattered clouds at 1500 feet AGL
Weather: HZ  (haze)

METAR text: VGHS 181830Z 18010KT 4000 HZ SCT015 30/26 Q1007 NOSIG
Conditions at: VGHS (DHAKA , BD) observed 1830 UTC 18 August 2019
Temperature: 30.0°C (86°F)
Dewpoint: 26.0°C (79°F) [RH = 79%]
Pressure (altimeter): 29.73 inches Hg (1007.0 mb)
Winds: from the S (180 degrees) at 12 MPH (10 knots; 5.1 m/s)
Visibility: 2.49 miles (4.01 km)
Ceiling: at least 12,000 feet AGL
Clouds: scattered clouds at 1500 feet AGL
Weather: HZ  (haze)

METAR text: VGHS 181800Z 17010KT 4000 HZ SCT015 30/26 Q1007 NOSIG
Conditions at: VGHS (DHAKA , BD) observed 1800 UTC 18 August 2019
Temperature: 30.0°C (86°F)
Dewpoint: 26.0°C (79°F) [RH = 79%]
Pressure (altimeter): 29.73 inches Hg (1007.0 mb)
Winds: from the S (170 degrees) at 12 MPH (10 knots; 5.1 m/s)
Visibility: 2.49 miles (4.01 km)
Ceiling: at least 12,000 feet AGL
Clouds: scattered clouds at 1500 feet AGL
Weather: HZ  (haze)

METAR text: VGHS 181730Z 18010KT 4000 HZ SCT015 30/26 Q1007 NOSIG
Conditions at: VGHS (DHAKA , BD) observed 1730 UTC 18 August 2019
Temperature: 30.0°C (86°F)
Dewpoint: 26.0°C (79°F) [RH = 79%]
Pressure (altimeter): 29.73 inches Hg (1007.0 mb)
Winds: from the S (180 degrees) at 12 MPH (10 knots; 5.1 m/s)
Visibility: 2.49 miles (4.01 km)
Ceiling: at least 12,000 feet AGL
Clouds: scattered clouds at 1500 feet AGL
Weather: HZ  (haze)

METAR text: VGHS 181700Z 19010KT 4000 HZ SCT015 30/26 Q1007 NOSIG
Conditions at: VGHS (DHAKA , BD) observed 1700 UTC 18 August 2019
Temperature: 30.0°C (86°F)
Dewpoint: 26.0°C (79°F) [RH = 79%]
Pressure (altimeter): 29.73 inches Hg (1007.0 mb)
Winds: from the S (190 degrees) at 12 MPH (10 knots; 5.1 m/s)
Visibility: 2.49 miles (4.01 km)
Ceiling: at least 12,000 feet AGL
Clouds: scattered clouds at 1500 feet AGL
Weather: HZ  (haze)

METAR text: VGHS 181630Z 16008KT 4000 HZ SCT015 30/25 Q1007 NOSIG
Conditions at: VGHS (DHAKA , BD) observed 1630 UTC 18 August 2019
Temperature: 30.0°C (86°F)
Dewpoint: 25.0°C (77°F) [RH = 75%]
Pressure (altimeter): 29.73 inches Hg (1007.0 mb)
Winds: from the SSE (160 degrees) at 9 MPH (8 knots; 4.1 m/s)
Visibility: 2.49 miles (4.01 km)
Ceiling: at least 12,000 feet AGL
Clouds: scattered clouds at 1500 feet AGL
Weather: HZ  (haze)

METAR text: VGHS 181600Z 15008KT 4000 HZ SCT015 30/25 Q1007 NOSIG
Conditions at: VGHS (DHAKA , BD) observed 1600 UTC 18 August 2019
Temperature: 30.0°C (86°F)
Dewpoint: 25.0°C (77°F) [RH = 75%]
Pressure (altimeter): 29.73 inches Hg (1007.0 mb)
Winds: from the SSE (150 degrees) at 9 MPH (8 knots; 4.1 m/s)
Visibility: 2.49 miles (4.01 km)
Ceiling: at least 12,000 feet AGL
Clouds: scattered clouds at 1500 feet AGL
Weather: HZ  (haze)

METAR text: VGHS 181530Z 16005KT 4000 HZ SCT015 30/25 Q1007 NOSIG
Conditions at: VGHS (DHAKA , BD) observed 1530 UTC 18 August 2019
Temperature: 30.0°C (86°F)
Dewpoint: 25.0°C (77°F) [RH = 75%]
Pressure (altimeter): 29.73 inches Hg (1007.0 mb)
Winds: from the SSE (160 degrees) at 6 MPH (5 knots; 2.6 m/s)
Visibility: 2.49 miles (4.01 km)
Ceiling: at least 12,000 feet AGL
Clouds: scattered clouds at 1500 feet AGL
Weather: HZ  (haze)

METAR text: VGHS 181500Z 18005KT 4000 HZ SCT015 30/25 Q1006 NOSIG
Conditions at: VGHS (DHAKA , BD) observed 1500 UTC 18 August 2019
Temperature: 30.0°C (86°F)
Dewpoint: 25.0°C (77°F) [RH = 75%]
Pressure (altimeter): 29.70 inches Hg (1006.0 mb)
Winds: from the S (180 degrees) at 6 MPH (5 knots; 2.6 m/s)
Visibility: 2.49 miles (4.01 km)
Ceiling: at least 12,000 feet AGL
Clouds: scattered clouds at 1500 feet AGL
Weather: HZ  (haze)

METAR text: VGHS 181430Z 15008KT 4000 HZ SCT015 30/25 Q1006 NOSIG
Conditions at: VGHS (DHAKA , BD) observed 1430 UTC 18 August 2019
Temperature: 30.0°C (86°F)
Dewpoint: 25.0°C (77°F) [RH = 75%]
Pressure (altimeter): 29.70 inches Hg (1006.0 mb)
Winds: from the SSE (150 degrees) at 9 MPH (8 knots; 4.1 m/s)
Visibility: 2.49 miles (4.01 km)
Ceiling: at least 12,000 feet AGL
Clouds: scattered clouds at 1500 feet AGL
Weather: HZ  (haze)

METAR text: VGHS 181400Z 17015KT 4000 HZ SCT015 30/25 Q1005 NOSIG
Conditions at: VGHS (DHAKA , BD) observed 1400 UTC 18 August 2019
Temperature: 30.0°C (86°F)
Dewpoint: 25.0°C (77°F) [RH = 75%]
Pressure (altimeter): 29.68 inches Hg (1005.0 mb)
Winds: from the S (170 degrees) at 17 MPH (15 knots; 7.7 m/s)
Visibility: 2.49 miles (4.01 km)
Ceiling: at least 12,000 feet AGL
Clouds: scattered clouds at 1500 feet AGL
Weather: HZ  (haze)

METAR text: VGHS 181330Z 15012KT 4000 HZ SCT015 31/25 Q1005 NOSIG
Conditions at: VGHS (DHAKA , BD) observed 1330 UTC 18 August 2019
Temperature: 31.0°C (88°F)
Dewpoint: 25.0°C (77°F) [RH = 71%]
Pressure (altimeter): 29.68 inches Hg (1005.0 mb)
Winds: from the SSE (150 degrees) at 14 MPH (12 knots; 6.2 m/s)
Visibility: 2.49 miles (4.01 km)
Ceiling: at least 12,000 feet AGL
Clouds: scattered clouds at 1500 feet AGL
Weather: HZ  (haze)

METAR text: VGHS 181300Z 16010KT 4000 HZ SCT015 31/24 Q1004 NOSIG
Conditions at: VGHS (DHAKA , BD) observed 1300 UTC 18 August 2019
Temperature: 31.0°C (88°F)
Dewpoint: 24.0°C (75°F) [RH = 66%]
Pressure (altimeter): 29.65 inches Hg (1004.0 mb)
Winds: from the SSE (160 degrees) at 12 MPH (10 knots; 5.1 m/s)
Visibility: 2.49 miles (4.01 km)
Ceiling: at least 12,000 feet AGL
Clouds: scattered clouds at 1500 feet AGL
Weather: HZ  (haze)

METAR text: VGHS 181230Z 15014KT 4000 HZ SCT015 BKN100 31/24 Q1004 NOSIG
Conditions at: VGHS (DHAKA , BD) observed 1230 UTC 18 August 2019
Temperature: 31.0°C (88°F)
Dewpoint: 24.0°C (75°F) [RH = 66%]
Pressure (altimeter): 29.65 inches Hg (1004.0 mb)
Winds: from the SSE (150 degrees) at 16 MPH (14 knots; 7.2 m/s)
Visibility: 2.49 miles (4.01 km)
Ceiling: 10000 feet AGL
Clouds: scattered clouds at 1500 feet AGL
broken clouds at 10000 feet AGL
Weather: HZ  (haze)

METAR text: VGHS 181200Z 16011KT 4000 HZ SCT015 BKN100 32/24 Q1004 NOSIG
Conditions at: VGHS (DHAKA , BD) observed 1200 UTC 18 August 2019
Temperature: 32.0°C (90°F)
Dewpoint: 24.0°C (75°F) [RH = 63%]
Pressure (altimeter): 29.65 inches Hg (1004.0 mb)
Winds: from the SSE (160 degrees) at 13 MPH (11 knots; 5.7 m/s)
Visibility: 2.49 miles (4.01 km)
Ceiling: 10000 feet AGL
Clouds: scattered clouds at 1500 feet AGL
broken clouds at 10000 feet AGL
Weather: HZ  (haze)

METAR text: VGHS 181130Z 17014KT 4000 HZ SCT015 BKN100 32/24 Q1003 NOSIG
Conditions at: VGHS (DHAKA , BD) observed 1130 UTC 18 August 2019
Temperature: 32.0°C (90°F)
Dewpoint: 24.0°C (75°F) [RH = 63%]
Pressure (altimeter): 29.62 inches Hg (1003.0 mb)
Winds: from the S (170 degrees) at 16 MPH (14 knots; 7.2 m/s)
Visibility: 2.49 miles (4.01 km)
Ceiling: 10000 feet AGL
Clouds: scattered clouds at 1500 feet AGL
broken clouds at 10000 feet AGL
Weather: HZ  (haze)

METAR text: VGHS 181100Z 16012KT 4000 HZ SCT012 BKN100 32/24 Q1003 NOSIG
Conditions at: VGHS (DHAKA , BD) observed 1100 UTC 18 August 2019
Temperature: 32.0°C (90°F)
Dewpoint: 24.0°C (75°F) [RH = 63%]
Pressure (altimeter): 29.62 inches Hg (1003.0 mb)
Winds: from the SSE (160 degrees) at 14 MPH (12 knots; 6.2 m/s)
Visibility: 2.49 miles (4.01 km)
Ceiling: 10000 feet AGL
Clouds: scattered clouds at 1200 feet AGL
broken clouds at 10000 feet AGL
Weather: HZ  (haze)

METAR text: VGHS 181030Z 18012KT 4000 HZ SCT012 BKN100 32/25 Q1004 NOSIG
Conditions at: VGHS (DHAKA , BD) observed 1030 UTC 18 August 2019
Temperature: 32.0°C (90°F)
Dewpoint: 25.0°C (77°F) [RH = 67%]
Pressure (altimeter): 29.65 inches Hg (1004.0 mb)
Winds: from the S (180 degrees) at 14 MPH (12 knots; 6.2 m/s)
Visibility: 2.49 miles (4.01 km)
Ceiling: 10000 feet AGL
Clouds: scattered clouds at 1200 feet AGL
broken clouds at 10000 feet AGL
Weather: HZ  (haze)

METAR text: VGHS 181000Z 19012KT 4000 HZ SCT012 BKN100 32/24 Q1003 NOSIG
Conditions at: VGHS (DHAKA , BD) observed 1000 UTC 18 August 2019
Temperature: 32.0°C (90°F)
Dewpoint: 24.0°C (75°F) [RH = 63%]
Pressure (altimeter): 29.62 inches Hg (1003.0 mb)
Winds: from the S (190 degrees) at 14 MPH (12 knots; 6.2 m/s)
Visibility: 2.49 miles (4.01 km)
Ceiling: 10000 feet AGL
Clouds: scattered clouds at 1200 feet AGL
broken clouds at 10000 feet AGL
Weather: HZ  (haze)

METAR text: VGHS 180930Z 16008KT 4000 HZ SCT012 BKN100 32/24 Q1004 NOSIG
Conditions at: VGHS (DHAKA , BD) observed 0930 UTC 18 August 2019
Temperature: 32.0°C (90°F)
Dewpoint: 24.0°C (75°F) [RH = 63%]
Pressure (altimeter): 29.65 inches Hg (1004.0 mb)
Winds: from the SSE (160 degrees) at 9 MPH (8 knots; 4.1 m/s)
Visibility: 2.49 miles (4.01 km)
Ceiling: 10000 feet AGL
Clouds: scattered clouds at 1200 feet AGL
broken clouds at 10000 feet AGL
Weather: HZ  (haze)

METAR text: VGHS 180900Z 18012KT 4000 HZ SCT012 BKN100 32/24 Q1004 NOSIG
Conditions at: VGHS (DHAKA , BD) observed 0900 UTC 18 August 2019
Temperature: 32.0°C (90°F)
Dewpoint: 24.0°C (75°F) [RH = 63%]
Pressure (altimeter): 29.65 inches Hg (1004.0 mb)
Winds: from the S (180 degrees) at 14 MPH (12 knots; 6.2 m/s)
Visibility: 2.49 miles (4.01 km)
Ceiling: 10000 feet AGL
Clouds: scattered clouds at 1200 feet AGL
broken clouds at 10000 feet AGL
Weather: HZ  (haze)

METAR text: VGHS 180830Z 15012KT 4000 HZ SCT015 BKN100 33/23 Q1004 NOSIG
Conditions at: VGHS (DHAKA , BD) observed 0830 UTC 18 August 2019
Temperature: 33.0°C (91°F)
Dewpoint: 23.0°C (73°F) [RH = 56%]
Pressure (altimeter): 29.65 inches Hg (1004.0 mb)
Winds: from the SSE (150 degrees) at 14 MPH (12 knots; 6.2 m/s)
Visibility: 2.49 miles (4.01 km)
Ceiling: 10000 feet AGL
Clouds: scattered clouds at 1500 feet AGL
broken clouds at 10000 feet AGL
Weather: HZ  (haze)

METAR text: VGHS 180800Z 17016KT 4000 HZ SCT015 BKN100 32/24 Q1005 NOSIG
Conditions at: VGHS (DHAKA , BD) observed 0800 UTC 18 August 2019
Temperature: 32.0°C (90°F)
Dewpoint: 24.0°C (75°F) [RH = 63%]
Pressure (altimeter): 29.68 inches Hg (1005.0 mb)
Winds: from the S (170 degrees) at 18 MPH (16 knots; 8.2 m/s)
Visibility: 2.49 miles (4.01 km)
Ceiling: 10000 feet AGL
Clouds: scattered clouds at 1500 feet AGL
broken clouds at 10000 feet AGL
Weather: HZ  (haze)

METAR text: VGHS 180730Z 16013KT 4000 HZ SCT015 BKN100 32/24 Q1005 NOSIG
Conditions at: VGHS (DHAKA , BD) observed 0730 UTC 18 August 2019
Temperature: 32.0°C (90°F)
Dewpoint: 24.0°C (75°F) [RH = 63%]
Pressure (altimeter): 29.68 inches Hg (1005.0 mb)
Winds: from the SSE (160 degrees) at 15 MPH (13 knots; 6.7 m/s)
Visibility: 2.49 miles (4.01 km)
Ceiling: 10000 feet AGL
Clouds: scattered clouds at 1500 feet AGL
broken clouds at 10000 feet AGL
Weather: HZ  (haze)

METAR text: VGHS 180700Z 17016KT 4000 HZ SCT015 BKN100 32/24 Q1005 NOSIG
Conditions at: VGHS (DHAKA , BD) observed 0700 UTC 18 August 2019
Temperature: 32.0°C (90°F)
Dewpoint: 24.0°C (75°F) [RH = 63%]
Pressure (altimeter): 29.68 inches Hg (1005.0 mb)
Winds: from the S (170 degrees) at 18 MPH (16 knots; 8.2 m/s)
Visibility: 2.49 miles (4.01 km)
Ceiling: 10000 feet AGL
Clouds: scattered clouds at 1500 feet AGL
broken clouds at 10000 feet AGL
Weather: HZ  (haze)

METAR text: VGHS 180630Z 14015KT 4000 HZ SCT015 BKN100 32/25 Q1005 NOSIG
Conditions at: VGHS (DHAKA , BD) observed 0630 UTC 18 August 2019
Temperature: 32.0°C (90°F)
Dewpoint: 25.0°C (77°F) [RH = 67%]
Pressure (altimeter): 29.68 inches Hg (1005.0 mb)
Winds: from the SE (140 degrees) at 17 MPH (15 knots; 7.7 m/s)
Visibility: 2.49 miles (4.01 km)
Ceiling: 10000 feet AGL
Clouds: scattered clouds at 1500 feet AGL
broken clouds at 10000 feet AGL
Weather: HZ  (haze)

METAR text: VGHS 180600Z 16015KT 4000 HZ SCT010 BKN100 32/25 Q1006 TEMPO RA
Conditions at: VGHS (DHAKA , BD) observed 0600 UTC 18 August 2019
Temperature: 32.0°C (90°F)
Dewpoint: 25.0°C (77°F) [RH = 67%]
Pressure (altimeter): 29.70 inches Hg (1006.0 mb)
Winds: from the SSE (160 degrees) at 17 MPH (15 knots; 7.7 m/s)
Visibility: 2.49 miles (4.01 km)
Ceiling: 10000 feet AGL
Clouds: scattered clouds at 1000 feet AGL
broken clouds at 10000 feet AGL
Weather: HZ  (haze)

METAR text: VGHS 180530Z 16013KT 3500 DZ SCT010 BKN100 31/25 Q1006 TEMPO RA
Conditions at: VGHS (DHAKA , BD) observed 0530 UTC 18 August 2019
Temperature: 31.0°C (88°F)
Dewpoint: 25.0°C (77°F) [RH = 71%]
Pressure (altimeter): 29.70 inches Hg (1006.0 mb)
Winds: from the SSE (160 degrees) at 15 MPH (13 knots; 6.7 m/s)
Visibility: 2.17 miles (3.49 km)
Ceiling: 10000 feet AGL
Clouds: scattered clouds at 1000 feet AGL
broken clouds at 10000 feet AGL
Weather: DZ  (moderate drizzle)

METAR text: VGHS 180500Z 14012KT 3500 DZ SCT010 BKN100 30/25 Q1006 TEMPO RA
Conditions at: VGHS (DHAKA , BD) observed 0500 UTC 18 August 2019
Temperature: 30.0°C (86°F)
Dewpoint: 25.0°C (77°F) [RH = 75%]
Pressure (altimeter): 29.70 inches Hg (1006.0 mb)
Winds: from the SE (140 degrees) at 14 MPH (12 knots; 6.2 m/s)
Visibility: 2.17 miles (3.49 km)
Ceiling: 10000 feet AGL
Clouds: scattered clouds at 1000 feet AGL
broken clouds at 10000 feet AGL
Weather: DZ  (moderate drizzle)

METAR text: VGHS 180430Z 14010KT 4000 HZ SCT012 BKN100 31/25 Q1006 NOSIG
Conditions at: VGHS (DHAKA , BD) observed 0430 UTC 18 August 2019
Temperature: 31.0°C (88°F)
Dewpoint: 25.0°C (77°F) [RH = 71%]
Pressure (altimeter): 29.70 inches Hg (1006.0 mb)
Winds: from the SE (140 degrees) at 12 MPH (10 knots; 5.1 m/s)
Visibility: 2.49 miles (4.01 km)
Ceiling: 10000 feet AGL
Clouds: scattered clouds at 1200 feet AGL
broken clouds at 10000 feet AGL
Weather: HZ  (haze)

METAR text: VGHS 180400Z 14013KT 4000 HZ SCT012 BKN100 31/25 Q1007 NOSIG
Conditions at: VGHS (DHAKA , BD) observed 0400 UTC 18 August 2019
Temperature: 31.0°C (88°F)
Dewpoint: 25.0°C (77°F) [RH = 71%]
Pressure (altimeter): 29.73 inches Hg (1007.0 mb)
Winds: from the SE (140 degrees) at 15 MPH (13 knots; 6.7 m/s)
Visibility: 2.49 miles (4.01 km)
Ceiling: 10000 feet AGL
Clouds: scattered clouds at 1200 feet AGL
broken clouds at 10000 feet AGL
Weather: HZ  (haze)

METAR text: VGHS 180330Z 14013KT 4000 HZ SCT012 BKN100 30/25 Q1007 NOSIG
Conditions at: VGHS (DHAKA , BD) observed 0330 UTC 18 August 2019
Temperature: 30.0°C (86°F)
Dewpoint: 25.0°C (77°F) [RH = 75%]
Pressure (altimeter): 29.73 inches Hg (1007.0 mb)
Winds: from the SE (140 degrees) at 15 MPH (13 knots; 6.7 m/s)
Visibility: 2.49 miles (4.01 km)
Ceiling: 10000 feet AGL
Clouds: scattered clouds at 1200 feet AGL
broken clouds at 10000 feet AGL
Weather: HZ  (haze)

METAR text: VGHS 180300Z 14010KT 4000 HZ SCT015 BKN100 29/25 Q1007 NOSIG
Conditions at: VGHS (DHAKA , BD) observed 0300 UTC 18 August 2019
Temperature: 29.0°C (84°F)
Dewpoint: 25.0°C (77°F) [RH = 79%]
Pressure (altimeter): 29.73 inches Hg (1007.0 mb)
Winds: from the SE (140 degrees) at 12 MPH (10 knots; 5.1 m/s)
Visibility: 2.49 miles (4.01 km)
Ceiling: 10000 feet AGL
Clouds: scattered clouds at 1500 feet AGL
broken clouds at 10000 feet AGL
Weather: HZ  (haze)

METAR text: VGHS 180230Z 14009KT 4000 DZ BKN010 BKN100 28/25 Q1007 NOSIG
Conditions at: VGHS (DHAKA , BD) observed 0230 UTC 18 August 2019
Temperature: 28.0°C (82°F)
Dewpoint: 25.0°C (77°F) [RH = 84%]
Pressure (altimeter): 29.73 inches Hg (1007.0 mb)
Winds: from the SE (140 degrees) at 10 MPH (9 knots; 4.6 m/s)
Visibility: 2.49 miles (4.01 km)
Ceiling: 1000 feet AGL
Clouds: broken clouds at 1000 feet AGL
broken clouds at 10000 feet AGL
Weather: DZ  (moderate drizzle)

METAR text: VGHS 180200Z 16009KT 3500 DZ BKN010 FEW025CB BKN100 28/25 Q1006 TEMPO TSRA
Conditions at: VGHS (DHAKA , BD) observed 0200 UTC 18 August 2019
Temperature: 28.0°C (82°F)
Dewpoint: 25.0°C (77°F) [RH = 84%]
Pressure (altimeter): 29.70 inches Hg (1006.0 mb)
Winds: from the SSE (160 degrees) at 10 MPH (9 knots; 4.6 m/s)
Visibility: 2.17 miles (3.49 km)
Ceiling: 1000 feet AGL
Clouds: broken clouds at 1000 feet AGL
few clouds at 2500 feet AGL
broken clouds at 10000 feet AGL
Weather: DZ  (moderate drizzle)

METAR text: VGHS 180130Z 13008KT 4000 HZ SCT012 FEW025CB BKN100 28/24 Q1006 TEMPO TSRA
Conditions at: VGHS (DHAKA , BD) observed 0130 UTC 18 August 2019
Temperature: 28.0°C (82°F)
Dewpoint: 24.0°C (75°F) [RH = 79%]
Pressure (altimeter): 29.70 inches Hg (1006.0 mb)
Winds: from the SE (130 degrees) at 9 MPH (8 knots; 4.1 m/s)
Visibility: 2.49 miles (4.01 km)
Ceiling: 10000 feet AGL
Clouds: scattered clouds at 1200 feet AGL
few clouds at 2500 feet AGL
broken clouds at 10000 feet AGL
Weather: HZ  (haze)

METAR text: VGHS 180100Z 13007KT 4000 HZ SCT012 BKNT100 28/24 Q1006 NOSIG
Conditions at: VGHS (DHAKA , BD) observed 0100 UTC 18 August 2019
Temperature: 28.0°C (82°F)
Dewpoint: 24.0°C (75°F) [RH = 79%]
Pressure (altimeter): 29.70 inches Hg (1006.0 mb)
Winds: from the SE (130 degrees) at 8 MPH (7 knots; 3.6 m/s)
Visibility: 2.49 miles (4.01 km)
Ceiling: at least 12,000 feet AGL
Clouds: scattered clouds at 1200 feet AGL
Weather: HZ  (haze)

METAR text: VGHS 180030Z 12008KT 4000 HZ SCT012 BKNT100 28/24 Q1005 NOSIG
Conditions at: VGHS (DHAKA , BD) observed 0030 UTC 18 August 2019
Temperature: 28.0°C (82°F)
Dewpoint: 24.0°C (75°F) [RH = 79%]
Pressure (altimeter): 29.68 inches Hg (1005.0 mb)
Winds: from the ESE (120 degrees) at 9 MPH (8 knots; 4.1 m/s)
Visibility: 2.49 miles (4.01 km)
Ceiling: at least 12,000 feet AGL
Clouds: scattered clouds at 1200 feet AGL
Weather: HZ  (haze)

METAR text: VGHS 180000Z 12006KT 4000 HZ SCT012 BKNT100 28/24 Q1005 NOSIG
Conditions at: VGHS (DHAKA , BD) observed 0000 UTC 18 August 2019
Temperature: 28.0°C (82°F)
Dewpoint: 24.0°C (75°F) [RH = 79%]
Pressure (altimeter): 29.68 inches Hg (1005.0 mb)
Winds: from the ESE (120 degrees) at 7 MPH (6 knots; 3.1 m/s)
Visibility: 2.49 miles (4.01 km)
Ceiling: at least 12,000 feet AGL
Clouds: scattered clouds at 1200 feet AGL
Weather: HZ  (haze)

METAR text: VGHS 172330Z 15006KT 4000 HZ FEW015 SCT100 28/24 Q1005 NOSIG
Conditions at: VGHS (DHAKA , BD) observed 2330 UTC 17 August 2019
Temperature: 28.0°C (82°F)
Dewpoint: 24.0°C (75°F) [RH = 79%]
Pressure (altimeter): 29.68 inches Hg (1005.0 mb)
Winds: from the SSE (150 degrees) at 7 MPH (6 knots; 3.1 m/s)
Visibility: 2.49 miles (4.01 km)
Ceiling: at least 12,000 feet AGL
Clouds: few clouds at 1500 feet AGL
scattered clouds at 10000 feet AGL
Weather: HZ  (haze)

METAR text: VGHS 172300Z 14007KT 4000 HZ FEW015 SCT100 28/24 Q1005 NOSIG
Conditions at: VGHS (DHAKA , BD) observed 2300 UTC 17 August 2019
Temperature: 28.0°C (82°F)
Dewpoint: 24.0°C (75°F) [RH = 79%]
Pressure (altimeter): 29.68 inches Hg (1005.0 mb)
Winds: from the SE (140 degrees) at 8 MPH (7 knots; 3.6 m/s)
Visibility: 2.49 miles (4.01 km)
Ceiling: at least 12,000 feet AGL
Clouds: few clouds at 1500 feet AGL
scattered clouds at 10000 feet AGL
Weather: HZ  (haze)

METAR text: VGHS 172230Z 15006KT 4000 HZ SCT012 BKN100 28/24 Q1004 NOSIG
Conditions at: VGHS (DHAKA , BD) observed 2230 UTC 17 August 2019
Temperature: 28.0°C (82°F)
Dewpoint: 24.0°C (75°F) [RH = 79%]
Pressure (altimeter): 29.65 inches Hg (1004.0 mb)
Winds: from the SSE (150 degrees) at 7 MPH (6 knots; 3.1 m/s)
Visibility: 2.49 miles (4.01 km)
Ceiling: 10000 feet AGL
Clouds: scattered clouds at 1200 feet AGL
broken clouds at 10000 feet AGL
Weather: HZ  (haze)

METAR text: VGHS 172200Z 16006KT 4000 HZ SCT012 BKN100 28/24 Q1004 NOSIG
Conditions at: VGHS (DHAKA , BD) observed 2200 UTC 17 August 2019
Temperature: 28.0°C (82°F)
Dewpoint: 24.0°C (75°F) [RH = 79%]
Pressure (altimeter): 29.65 inches Hg (1004.0 mb)
Winds: from the SSE (160 degrees) at 7 MPH (6 knots; 3.1 m/s)
Visibility: 2.49 miles (4.01 km)
Ceiling: 10000 feet AGL
Clouds: scattered clouds at 1200 feet AGL
broken clouds at 10000 feet AGL
Weather: HZ  (haze)

METAR text: VGHS 172130Z 16008KT 4000 HZ SCT012 BKN100 28/24 Q1004 NOSIG
Conditions at: VGHS (DHAKA , BD) observed 2130 UTC 17 August 2019
Temperature: 28.0°C (82°F)
Dewpoint: 24.0°C (75°F) [RH = 79%]
Pressure (altimeter): 29.65 inches Hg (1004.0 mb)
Winds: from the SSE (160 degrees) at 9 MPH (8 knots; 4.1 m/s)
Visibility: 2.49 miles (4.01 km)
Ceiling: 10000 feet AGL
Clouds: scattered clouds at 1200 feet AGL
broken clouds at 10000 feet AGL
Weather: HZ  (haze)

METAR text: VGHS 172100Z 17009KT 4000 HZ SCT012 BKN100 28/24 Q1004 NOSIG
Conditions at: VGHS (DHAKA , BD) observed 2100 UTC 17 August 2019
Temperature: 28.0°C (82°F)
Dewpoint: 24.0°C (75°F) [RH = 79%]
Pressure (altimeter): 29.65 inches Hg (1004.0 mb)
Winds: from the S (170 degrees) at 10 MPH (9 knots; 4.6 m/s)
Visibility: 2.49 miles (4.01 km)
Ceiling: 10000 feet AGL
Clouds: scattered clouds at 1200 feet AGL
broken clouds at 10000 feet AGL
Weather: HZ  (haze)

METAR text: VGHS 172030Z 15006KT 4000 HZ SCT012 BKN100 28/24 Q1004 NOSIG
Conditions at: VGHS (DHAKA , BD) observed 2030 UTC 17 August 2019
Temperature: 28.0°C (82°F)
Dewpoint: 24.0°C (75°F) [RH = 79%]
Pressure (altimeter): 29.65 inches Hg (1004.0 mb)
Winds: from the SSE (150 degrees) at 7 MPH (6 knots; 3.1 m/s)
Visibility: 2.49 miles (4.01 km)
Ceiling: 10000 feet AGL
Clouds: scattered clouds at 1200 feet AGL
broken clouds at 10000 feet AGL
Weather: HZ  (haze)

METAR text: VGHS 172000Z 14006KT 4000 HZ SCT012 BKN100 28/24 Q1004 NOSIG
Conditions at: VGHS (DHAKA , BD) observed 2000 UTC 17 August 2019
Temperature: 28.0°C (82°F)
Dewpoint: 24.0°C (75°F) [RH = 79%]
Pressure (altimeter): 29.65 inches Hg (1004.0 mb)
Winds: from the SE (140 degrees) at 7 MPH (6 knots; 3.1 m/s)
Visibility: 2.49 miles (4.01 km)
Ceiling: 10000 feet AGL
Clouds: scattered clouds at 1200 feet AGL
broken clouds at 10000 feet AGL
Weather: HZ  (haze)

METAR text: VGHS 171930Z 17008KT 4000 HZ SCT012 BKN100 28/24 Q1005 NOSIG
Conditions at: VGHS (DHAKA , BD) observed 1930 UTC 17 August 2019
Temperature: 28.0°C (82°F)
Dewpoint: 24.0°C (75°F) [RH = 79%]
Pressure (altimeter): 29.68 inches Hg (1005.0 mb)
Winds: from the S (170 degrees) at 9 MPH (8 knots; 4.1 m/s)
Visibility: 2.49 miles (4.01 km)
Ceiling: 10000 feet AGL
Clouds: scattered clouds at 1200 feet AGL
broken clouds at 10000 feet AGL
Weather: HZ  (haze)

METAR text: VGHS 171900Z 18008KT 4000 HZ SCT012 BKN100 28/24 Q1005 COR NOSIG
Conditions at: VGHS (DHAKA , BD) observed 1900 UTC 17 August 2019
Temperature: 28.0°C (82°F)
Dewpoint: 24.0°C (75°F) [RH = 79%]
Pressure (altimeter): 29.68 inches Hg (1005.0 mb)
Winds: from the S (180 degrees) at 9 MPH (8 knots; 4.1 m/s)
Visibility: 2.49 miles (4.01 km)
Ceiling: 10000 feet AGL
Clouds: scattered clouds at 1200 feet AGL
broken clouds at 10000 feet AGL
Weather: HZ  (haze)

METAR text: VGHS 171830Z 15006KT 4000 HZ FEW015 SCT100 29/25 Q1004 NOSIG
Conditions at: VGHS (DHAKA , BD) observed 1830 UTC 17 August 2019
Temperature: 29.0°C (84°F)
Dewpoint: 25.0°C (77°F) [RH = 79%]
Pressure (altimeter): 29.65 inches Hg (1004.0 mb)
Winds: from the SSE (150 degrees) at 7 MPH (6 knots; 3.1 m/s)
Visibility: 2.49 miles (4.01 km)
Ceiling: at least 12,000 feet AGL
Clouds: few clouds at 1500 feet AGL
scattered clouds at 10000 feet AGL
Weather: HZ  (haze)

METAR text: VGHS 171800Z 17009KT 4000 HZ FEW015 SCT100 29/25 Q1004 NOSIG
Conditions at: VGHS (DHAKA , BD) observed 1800 UTC 17 August 2019
Temperature: 29.0°C (84°F)
Dewpoint: 25.0°C (77°F) [RH = 79%]
Pressure (altimeter): 29.65 inches Hg (1004.0 mb)
Winds: from the S (170 degrees) at 10 MPH (9 knots; 4.6 m/s)
Visibility: 2.49 miles (4.01 km)
Ceiling: at least 12,000 feet AGL
Clouds: few clouds at 1500 feet AGL
scattered clouds at 10000 feet AGL
Weather: HZ  (haze)

METAR text: VGHS 171730Z 14009KT 4000 HZ FEW015 SCT100 29/25 Q1005 NOSIG
Conditions at: VGHS (DHAKA , BD) observed 1730 UTC 17 August 2019
Temperature: 29.0°C (84°F)
Dewpoint: 25.0°C (77°F) [RH = 79%]
Pressure (altimeter): 29.68 inches Hg (1005.0 mb)
Winds: from the SE (140 degrees) at 10 MPH (9 knots; 4.6 m/s)
Visibility: 2.49 miles (4.01 km)
Ceiling: at least 12,000 feet AGL
Clouds: few clouds at 1500 feet AGL
scattered clouds at 10000 feet AGL
Weather: HZ  (haze)

METAR text: VGHS 171700Z 16007KT 4000 HZ FEW015 SCT100 29/25 Q1005 NOSIG
Conditions at: VGHS (DHAKA , BD) observed 1700 UTC 17 August 2019
Temperature: 29.0°C (84°F)
Dewpoint: 25.0°C (77°F) [RH = 79%]
Pressure (altimeter): 29.68 inches Hg (1005.0 mb)
Winds: from the SSE (160 degrees) at 8 MPH (7 knots; 3.6 m/s)
Visibility: 2.49 miles (4.01 km)
Ceiling: at least 12,000 feet AGL
Clouds: few clouds at 1500 feet AGL
scattered clouds at 10000 feet AGL
Weather: HZ  (haze)

METAR text: VGHS 171630Z 17005KT 4000 HZ FEW015 SCT100 29/25 Q1004 NOSIG
Conditions at: VGHS (DHAKA , BD) observed 1630 UTC 17 August 2019
Temperature: 29.0°C (84°F)
Dewpoint: 25.0°C (77°F) [RH = 79%]
Pressure (altimeter): 29.65 inches Hg (1004.0 mb)
Winds: from the S (170 degrees) at 6 MPH (5 knots; 2.6 m/s)
Visibility: 2.49 miles (4.01 km)
Ceiling: at least 12,000 feet AGL
Clouds: few clouds at 1500 feet AGL
scattered clouds at 10000 feet AGL
Weather: HZ  (haze)

METAR text: VGHS 171600Z 20006KT 4000 HZ FEW015 SCT100 29/25 Q1005 NOSIG
Conditions at: VGHS (DHAKA , BD) observed 1600 UTC 17 August 2019
Temperature: 29.0°C (84°F)
Dewpoint: 25.0°C (77°F) [RH = 79%]
Pressure (altimeter): 29.68 inches Hg (1005.0 mb)
Winds: from the SSW (200 degrees) at 7 MPH (6 knots; 3.1 m/s)
Visibility: 2.49 miles (4.01 km)
Ceiling: at least 12,000 feet AGL
Clouds: few clouds at 1500 feet AGL
scattered clouds at 10000 feet AGL
Weather: HZ  (haze)

METAR text: VGHS 171530Z 18012KT 4000 HZ SCT015 BKN100 29/25 Q1004 NOSIG
Conditions at: VGHS (DHAKA , BD) observed 1530 UTC 17 August 2019
Temperature: 29.0°C (84°F)
Dewpoint: 25.0°C (77°F) [RH = 79%]
Pressure (altimeter): 29.65 inches Hg (1004.0 mb)
Winds: from the S (180 degrees) at 14 MPH (12 knots; 6.2 m/s)
Visibility: 2.49 miles (4.01 km)
Ceiling: 10000 feet AGL
Clouds: scattered clouds at 1500 feet AGL
broken clouds at 10000 feet AGL
Weather: HZ  (haze)

METAR text: VGHS 171500Z 18006KT 4000 HZ SCT015 BKN100 29/25 Q1004 NOSIG
Conditions at: VGHS (DHAKA , BD) observed 1500 UTC 17 August 2019
Temperature: 29.0°C (84°F)
Dewpoint: 25.0°C (77°F) [RH = 79%]
Pressure (altimeter): 29.65 inches Hg (1004.0 mb)
Winds: from the S (180 degrees) at 7 MPH (6 knots; 3.1 m/s)
Visibility: 2.49 miles (4.01 km)
Ceiling: 10000 feet AGL
Clouds: scattered clouds at 1500 feet AGL
broken clouds at 10000 feet AGL
Weather: HZ  (haze)

METAR text: VGHS 171430Z 18006KT 4000 HZ SCT015 BKN100 30/25 Q1004 NOSIG
Conditions at: VGHS (DHAKA , BD) observed 1430 UTC 17 August 2019
Temperature: 30.0°C (86°F)
Dewpoint: 25.0°C (77°F) [RH = 75%]
Pressure (altimeter): 29.65 inches Hg (1004.0 mb)
Winds: from the S (180 degrees) at 7 MPH (6 knots; 3.1 m/s)
Visibility: 2.49 miles (4.01 km)
Ceiling: 10000 feet AGL
Clouds: scattered clouds at 1500 feet AGL
broken clouds at 10000 feet AGL
Weather: HZ  (haze)

METAR text: VGHS 171400Z 18008KT 4000 HZ SCT015 BKN100 30/25 Q1003 NOSIG
Conditions at: VGHS (DHAKA , BD) observed 1400 UTC 17 August 2019
Temperature: 30.0°C (86°F)
Dewpoint: 25.0°C (77°F) [RH = 75%]
Pressure (altimeter): 29.62 inches Hg (1003.0 mb)
Winds: from the S (180 degrees) at 9 MPH (8 knots; 4.1 m/s)
Visibility: 2.49 miles (4.01 km)
Ceiling: 10000 feet AGL
Clouds: scattered clouds at 1500 feet AGL
broken clouds at 10000 feet AGL
Weather: HZ  (haze)

METAR text: VGHS 171330Z 17005KT 4000 HZ SCT015 BKN100 30/25 Q1003 NOSIG
Conditions at: VGHS (DHAKA , BD) observed 1330 UTC 17 August 2019
Temperature: 30.0°C (86°F)
Dewpoint: 25.0°C (77°F) [RH = 75%]
Pressure (altimeter): 29.62 inches Hg (1003.0 mb)
Winds: from the S (170 degrees) at 6 MPH (5 knots; 2.6 m/s)
Visibility: 2.49 miles (4.01 km)
Ceiling: 10000 feet AGL
Clouds: scattered clouds at 1500 feet AGL
broken clouds at 10000 feet AGL
Weather: HZ  (haze)

METAR text: VGHS 171300Z 16006KT 4000 HZ SCT015 BKN100 30/25 Q1002 NOSIG
Conditions at: VGHS (DHAKA , BD) observed 1300 UTC 17 August 2019
Temperature: 30.0°C (86°F)
Dewpoint: 25.0°C (77°F) [RH = 75%]
Pressure (altimeter): 29.59 inches Hg (1002.0 mb)
Winds: from the SSE (160 degrees) at 7 MPH (6 knots; 3.1 m/s)
Visibility: 2.49 miles (4.01 km)
Ceiling: 10000 feet AGL
Clouds: scattered clouds at 1500 feet AGL
broken clouds at 10000 feet AGL
Weather: HZ  (haze)

METAR text: VGHS 171230Z 16010KT 4000 HZ SCT015 BKN100 30/25 Q1002 NOSIG
Conditions at: VGHS (DHAKA , BD) observed 1230 UTC 17 August 2019
Temperature: 30.0°C (86°F)
Dewpoint: 25.0°C (77°F) [RH = 75%]
Pressure (altimeter): 29.59 inches Hg (1002.0 mb)
Winds: from the SSE (160 degrees) at 12 MPH (10 knots; 5.1 m/s)
Visibility: 2.49 miles (4.01 km)
Ceiling: 10000 feet AGL
Clouds: scattered clouds at 1500 feet AGL
broken clouds at 10000 feet AGL
Weather: HZ  (haze)

METAR text: VGHS 171200Z 18006KT 4000 HZ SCT015 BKN100 30/25 Q1002 NOSIG
Conditions at: VGHS (DHAKA , BD) observed 1200 UTC 17 August 2019
Temperature: 30.0°C (86°F)
Dewpoint: 25.0°C (77°F) [RH = 75%]
Pressure (altimeter): 29.59 inches Hg (1002.0 mb)
Winds: from the S (180 degrees) at 7 MPH (6 knots; 3.1 m/s)
Visibility: 2.49 miles (4.01 km)
Ceiling: 10000 feet AGL
Clouds: scattered clouds at 1500 feet AGL
broken clouds at 10000 feet AGL
Weather: HZ  (haze)

Forecast for: VGHS (DHAKA , BD)
Text: TAF VGHS 182300Z 1900/2006 16008KT 3500 HZ SCT012 BKN100
Forecast period: 0000 to 1400 UTC 19 August 2019
Forecast type: FROM: standard forecast or significant change
Winds: from the SSE (160 degrees) at 9 MPH (8 knots; 4.1 m/s)
Visibility: 2.17 miles (3.49 km)
Ceiling: 10000 feet AGL
Clouds: scattered clouds at 1200 feet AGL
broken clouds at 10000 feet AGL
Weather: HZ  (haze)
Text: TEMPO 1906/1912 14025KT 2000 RA/TSRA BKN007 FEW025CB OVC090
Forecast period: 0600 to 1200 UTC 19 August 2019
Forecast type: TEMPORARY: The following changes expected for less than half the time period
Winds: from the SE (140 degrees) at 29 MPH (25 knots; 12.9 m/s)
Visibility: 1.24 miles (2.00 km)
Ceiling: 700 feet AGL
Clouds: broken clouds at 700 feet AGL
few clouds at 2500 feet AGL
overcast cloud deck at 9000 feet AGL
Weather: TSRA RA  (rain associated with thunderstorm(s), moderate rain)
Text: BECMG 1914/1916 17008KT 4000 HZ SCT015 BKN100
Forecast period: 1400 to 2200 UTC 19 August 2019
Forecast type: BECOMING: Conditions expected to become as follows by 1600 UTC 19 August 2019
Winds: from the S (170 degrees) at 9 MPH (8 knots; 4.1 m/s)
Visibility: 2.49 miles (4.01 km)
Ceiling: 10000 feet AGL
Clouds: scattered clouds at 1500 feet AGL
broken clouds at 10000 feet AGL
Weather: HZ  (haze)
Text: BECMG 1922/1924 15008KT 3500 HZ SCT012 BKN100
Forecast period: 2200 UTC 19 August 2019 to 0600 UTC 20 August 2019
Forecast type: BECOMING: Conditions expected to become as follows by 0000 UTC 20 August 2019
Winds: from the SSE (150 degrees) at 9 MPH (8 knots; 4.1 m/s)
Visibility: 2.17 miles (3.49 km)
Ceiling: 10000 feet AGL
Clouds: scattered clouds at 1200 feet AGL
broken clouds at 10000 feet AGL
Weather: HZ  (haze)
Text: TEMPO 2000/2006 14025KT 2000 RA/TSRA BKN007 FEW025CB OVC090
Forecast period: 0000 to 0600 UTC 20 August 2019
Forecast type: TEMPORARY: The following changes expected for less than half the time period
Winds: from the SE (140 degrees) at 29 MPH (25 knots; 12.9 m/s)
Visibility: 1.24 miles (2.00 km)
Ceiling: 700 feet AGL
Clouds: broken clouds at 700 feet AGL
few clouds at 2500 feet AGL
overcast cloud deck at 9000 feet AGL
Weather: TSRA RA  (rain associated with thunderstorm(s), moderate rain)